CheckWX is a tool to help pilots better visualize weather data.  It is not intended as a substitute for an official pre-flight weather briefing.

22:27:34 UTC

KUTA METAR
Tunica Municipal Airport
Tunica, Mississippi, USA
Current

33 mins ago

KUTA 022155Z AUTO 20003KT 10SM CLR 22/08 A3001 RMK AO2 TSNO
Observed
Apr-2 @ 21:55 UTC
Wind
  • 200° at 3 KTS
Visibility
Flight Rules
VFR
Cloud Levels
  • Clear skies
Temperature
22°C / 72°F
Dewpoint
C / 46°F
Humidity
41%
Altimeter
30.01" Hg
Pressure
1016.22 hPa
Previous

53 mins ago

KUTA 022135Z AUTO 18004KT 10SM CLR 22/08 A3001 RMK AO2 TSNO
Observed
Apr-2 @ 21:35 UTC
Wind
  • 180° at 4 KTS
Visibility
Flight Rules
VFR
Cloud Levels
  • Clear skies
Temperature
22°C / 72°F
Dewpoint
C / 46°F
Humidity
41%
Altimeter
30.01" Hg
Pressure
1016.22 hPa
Previous

1 hour ago

KUTA 022115Z AUTO 00000KT 7SM CLR 22/08 A3001 RMK AO2 TSNO
Observed
Apr-2 @ 21:15 UTC
Visibility
Flight Rules
VFR
Cloud Levels
  • Clear skies
Temperature
22°C / 72°F
Dewpoint
C / 46°F
Humidity
41%
Altimeter
30.01" Hg
Pressure
1016.22 hPa